KSFO

San Francisco International Airport

San Francisco, California, USA
METAR KSFO 201756Z 30009KT 10SM FEW008 15/11 A3003 RMK AO2 SLP169 T01500106 10150 20100 50000
Observed Flight Rules
Oct-20 @ 17:56 UTC (18 minutes ago) Visual Flight Rules
Wind Visibility Clouds
300° at 9 knots 10 miles
  • Few at 800' AGL
Temperatures Readings
Current 15°C / 59°F
Dewpoint 11°C / 52°F
Humidity 77%
Altimeter 30.03" Hg
Pressure 1016.9 hPa
Elevation 3
METAR KSFO 201756Z 30009KT 10SM FEW008 15/11 A3003 RMK AO2 SLP169 T01500106 10150 20100 50000
Observed Flight Rules
Oct-20 @ 17:56 UTC
(18 minutes ago)
VFR
Wind Visibility
300° at 9 knots 10 miles
Clouds
  • Few at 800' AGL
Temperature Dewpoint
15°C / 59°F 11°C / 52°F
Humidity Altimeter Pressure
77% 30.03" Hg 1016.9 hPa